createdAt,value
2018-06-17T00:01:26.299Z,67.40
2018-06-17T00:03:56.467Z,67.10
2018-06-17T00:06:26.520Z,67.00
2018-06-17T00:08:56.677Z,66.70
2018-06-17T00:11:26.778Z,66.40
2018-06-17T00:13:56.892Z,66.30
2018-06-17T00:16:27.012Z,65.90
2018-06-17T00:18:57.094Z,65.80
2018-06-17T00:21:27.816Z,65.70
2018-06-17T00:23:57.996Z,65.80
2018-06-17T00:26:28.065Z,66.00
2018-06-17T00:28:58.090Z,66.30
2018-06-17T00:31:28.152Z,66.20
2018-06-17T00:33:58.862Z,66.40
2018-06-17T00:36:28.897Z,66.20
2018-06-17T00:38:59.016Z,66.20
2018-06-17T00:41:29.190Z,66.40
2018-06-17T00:43:59.676Z,66.60
2018-06-17T00:46:29.845Z,66.80
2018-06-17T00:49:00.079Z,66.90
2018-06-17T00:51:30.120Z,68.00
2018-06-17T00:54:00.607Z,67.40
2018-06-17T00:56:30.671Z,67.70
2018-06-17T00:59:00.752Z,67.90
2018-06-17T01:01:30.861Z,68.00
2018-06-17T01:04:00.994Z,68.30
2018-06-17T01:06:31.156Z,68.60
2018-06-17T01:09:01.356Z,68.90
2018-06-17T01:11:31.486Z,69.30
2018-06-17T01:14:02.440Z,69.60
2018-06-17T01:16:32.473Z,69.90
2018-06-17T01:19:02.567Z,69.90
2018-06-17T01:21:32.686Z,69.70
2018-06-17T01:24:03.116Z,69.60
2018-06-17T01:26:33.661Z,69.90
2018-06-17T01:29:03.812Z,69.40
2018-06-17T01:31:33.929Z,69.30
2018-06-17T01:34:04.736Z,69.20
2018-06-17T01:36:34.753Z,69.10
2018-06-17T01:39:07.629Z,69.00
2018-06-17T01:41:37.679Z,68.90
2018-06-17T01:44:07.815Z,68.90
2018-06-17T01:46:38.001Z,69.90
2018-06-17T01:49:08.076Z,69.20
2018-06-17T01:51:38.187Z,69.30
2018-06-17T01:54:08.502Z,69.30
2018-06-17T01:56:38.601Z,69.30
2018-06-17T01:59:08.726Z,69.30
2018-06-17T02:01:38.951Z,69.40
2018-06-17T02:04:14.233Z,69.70
2018-06-17T02:06:49.571Z,69.50
2018-06-17T02:09:24.793Z,69.80
2018-06-17T02:14:36.298Z,70.00
2018-06-17T02:17:06.397Z,70.10
2018-06-17T02:19:36.448Z,71.00
2018-06-17T02:22:06.849Z,70.50
2018-06-17T02:24:37.327Z,70.70
2018-06-17T02:27:07.737Z,70.80
2018-06-17T02:29:37.945Z,71.00
2018-06-17T02:32:08.481Z,71.20
2018-06-17T02:34:38.879Z,71.30
2018-06-17T02:37:09.929Z,71.30
2018-06-17T02:39:40.121Z,71.40
2018-06-17T02:42:10.553Z,71.50
2018-06-17T02:44:40.672Z,71.40
2018-06-17T02:47:15.959Z,71.50
2018-06-17T02:49:48.543Z,71.80
2018-06-17T02:52:24.030Z,72.00
2018-06-17T02:54:54.101Z,72.10
2018-06-17T02:57:24.307Z,72.40
2018-06-17T02:59:54.385Z,72.40
2018-06-17T03:02:24.496Z,72.70
2018-06-17T03:04:54.549Z,72.80
2018-06-17T03:07:24.787Z,73.00
2018-06-17T03:09:54.907Z,73.20
2018-06-17T03:12:25.026Z,73.20
2018-06-17T03:14:55.193Z,73.40
2018-06-17T03:17:25.414Z,73.50
2018-06-17T03:19:56.249Z,74.20
2018-06-17T03:22:26.375Z,73.60
2018-06-17T03:25:01.643Z,74.50
2018-06-17T03:27:37.056Z,73.80
2018-06-17T03:30:12.397Z,73.90
2018-06-17T03:32:47.927Z,73.90
2018-06-17T03:35:23.541Z,73.90
2018-06-17T03:37:53.557Z,73.80
2018-06-17T03:40:23.677Z,73.70
2018-06-17T03:42:53.899Z,73.60
2018-06-17T03:45:24.059Z,73.70
2018-06-17T03:47:54.060Z,73.40
2018-06-17T03:50:24.127Z,73.50
2018-06-17T03:52:54.189Z,73.50
2018-06-17T03:55:24.217Z,73.70
2018-06-17T03:57:54.313Z,73.70
2018-06-17T04:00:24.905Z,73.80
2018-06-17T04:02:55.002Z,73.90
2018-06-17T04:05:28.045Z,73.90
2018-06-17T04:07:59.699Z,73.80
2018-06-17T04:10:29.870Z,73.80
2018-06-17T04:13:00.046Z,73.70
2018-06-17T04:15:30.117Z,73.80
2018-06-17T04:18:00.232Z,73.80
2018-06-17T04:20:31.642Z,73.80
2018-06-17T04:23:01.794Z,73.90
2018-06-17T04:25:32.028Z,74.10
2018-06-17T04:28:02.052Z,74.10
2018-06-17T04:30:32.420Z,74.20
2018-06-17T04:33:02.503Z,74.30
2018-06-17T04:35:32.610Z,74.20
2018-06-17T04:38:02.801Z,74.30
2018-06-17T04:40:32.916Z,74.20
2018-06-17T04:43:03.112Z,74.10
2018-06-17T04:45:33.432Z,74.00
2018-06-17T04:48:03.640Z,73.90
2018-06-17T04:50:35.369Z,73.80
2018-06-17T04:53:05.542Z,73.60
2018-06-17T04:55:35.586Z,73.40
2018-06-17T04:58:05.692Z,73.50
2018-06-17T05:00:35.838Z,73.70
2018-06-17T05:03:05.902Z,73.70
2018-06-17T05:05:36.061Z,73.80
2018-06-17T05:08:06.642Z,73.90
2018-06-17T05:10:36.713Z,74.00
2018-06-17T05:13:07.444Z,73.90
2018-06-17T05:15:37.563Z,73.90
2018-06-17T05:18:07.669Z,73.70
2018-06-17T05:20:37.748Z,73.40
2018-06-17T05:23:07.806Z,74.10
2018-06-17T05:25:38.527Z,73.30
2018-06-17T05:28:08.586Z,73.40
2018-06-17T05:30:39.762Z,73.50
2018-06-17T05:33:10.216Z,73.40
2018-06-17T05:35:40.256Z,73.10
2018-06-17T05:38:10.284Z,72.70
2018-06-17T05:40:40.338Z,71.90
2018-06-17T05:43:10.515Z,69.10
2018-06-17T05:45:40.664Z,68.10
2018-06-17T05:48:10.711Z,67.30
2018-06-17T05:50:40.843Z,66.60
2018-06-17T05:53:10.930Z,67.10
2018-06-17T05:55:41.132Z,66.10
2018-06-17T05:58:11.120Z,65.80
2018-06-17T06:00:41.340Z,65.70
2018-06-17T06:03:11.455Z,65.20
2018-06-17T06:05:41.971Z,65.20
2018-06-17T06:08:12.191Z,64.80
2018-06-17T06:10:42.270Z,64.80
2018-06-17T06:13:12.436Z,64.30
2018-06-17T06:15:43.246Z,64.20
2018-06-17T06:18:13.534Z,64.30
2018-06-17T06:20:43.814Z,64.60
2018-06-17T06:23:13.960Z,64.90
2018-06-17T06:25:44.345Z,65.10
2018-06-17T06:28:14.998Z,66.00
2018-06-17T06:30:45.197Z,65.80
2018-06-17T06:33:15.339Z,66.10
2018-06-17T06:35:45.513Z,66.30
2018-06-17T06:38:15.528Z,66.50
2018-06-17T06:40:45.694Z,66.60
2018-06-17T06:43:15.829Z,66.60
2018-06-17T06:45:45.862Z,66.60
2018-06-17T06:48:16.083Z,66.50
2018-06-17T06:50:46.122Z,66.50
2018-06-17T06:53:16.268Z,66.40
2018-06-17T06:55:46.441Z,66.50
2018-06-17T06:58:16.658Z,66.50
2018-06-17T07:00:47.012Z,66.40
2018-06-17T07:03:33.884Z,66.30
2018-06-17T07:06:20.880Z,66.20
2018-06-17T07:09:07.969Z,65.80
2018-06-17T07:11:38.047Z,65.50
2018-06-17T07:14:08.912Z,65.20
2018-06-17T07:16:56.220Z,65.00
2018-06-17T07:19:26.264Z,64.60
2018-06-17T07:21:56.430Z,63.90
2018-06-17T07:24:26.497Z,63.30
2018-06-17T07:27:13.555Z,62.70
2018-06-17T07:29:47.185Z,61.80
2018-06-17T07:32:17.266Z,61.60
2018-06-17T07:34:47.379Z,61.60
2018-06-17T07:37:17.597Z,61.40
2018-06-17T07:40:52.400Z,60.90
2018-06-17T07:43:22.711Z,61.20
2018-06-17T07:45:53.169Z,61.70
2018-06-17T07:50:17.887Z,60.70
2018-06-17T07:53:05.040Z,61.00
2018-06-17T07:55:35.176Z,61.00
2018-06-17T07:58:05.387Z,60.80
2018-06-17T08:00:36.373Z,60.00
2018-06-17T08:03:06.667Z,59.80
2018-06-17T08:05:36.755Z,60.20
2018-06-17T08:08:06.895Z,60.20
2018-06-17T08:10:36.984Z,60.40
2018-06-17T08:13:07.147Z,60.60
2018-06-17T08:15:37.457Z,61.40
2018-06-17T08:18:07.671Z,60.40
2018-06-17T08:20:37.905Z,60.40
2018-06-17T08:23:08.163Z,60.80
2018-06-17T08:25:38.911Z,61.20
2018-06-17T08:28:09.663Z,61.80
2018-06-17T08:30:39.990Z,62.30
2018-06-17T08:33:10.107Z,62.20
2018-06-17T08:35:40.231Z,62.60
2018-06-17T08:38:10.293Z,62.90
2018-06-17T08:40:40.874Z,62.90
2018-06-17T08:45:40.611Z,62.70
2018-06-17T08:48:10.755Z,62.00
2018-06-17T08:50:40.848Z,61.70
2018-06-17T08:53:11.036Z,61.60
2018-06-17T08:55:41.420Z,61.60
2018-06-17T08:58:11.421Z,61.60
2018-06-17T09:00:41.546Z,61.30
2018-06-17T09:03:11.580Z,60.90
2018-06-17T09:05:41.821Z,60.90
2018-06-17T09:08:11.967Z,61.20
2018-06-17T09:10:42.651Z,60.80
2018-06-17T09:13:13.144Z,60.80
2018-06-17T09:15:43.353Z,60.80
2018-06-17T09:18:13.408Z,61.50
2018-06-17T09:20:43.680Z,60.30
2018-06-17T09:23:13.752Z,59.60
2018-06-17T09:25:44.947Z,59.30
2018-06-17T09:28:14.994Z,59.00
2018-06-17T09:30:45.186Z,59.10
2018-06-17T09:33:15.325Z,59.00
2018-06-17T09:35:45.917Z,59.00
2018-06-17T09:38:16.034Z,59.10
2018-06-17T09:40:49.204Z,59.30
2018-06-17T09:43:19.454Z,59.10
2018-06-17T09:45:49.497Z,58.90
2018-06-17T09:48:19.642Z,58.20
2018-06-17T09:50:49.718Z,57.30
2018-06-17T09:53:19.816Z,57.10
2018-06-17T09:55:50.584Z,56.90
2018-06-17T09:58:21.189Z,56.50
2018-06-17T10:00:51.194Z,55.60
2018-06-17T10:03:21.216Z,55.90
2018-06-17T10:05:51.418Z,56.10
2018-06-17T10:08:21.572Z,56.20
2018-06-17T10:10:56.628Z,56.30
2018-06-17T10:13:29.032Z,55.50
2018-06-17T10:15:59.206Z,55.10
2018-06-17T10:18:30.354Z,54.20
2018-06-17T10:21:00.455Z,54.30
2018-06-17T10:23:30.523Z,54.20
2018-06-17T10:26:01.480Z,54.20
2018-06-17T10:28:32.671Z,53.20
2018-06-17T10:31:04.327Z,53.80
2018-06-17T10:33:36.412Z,54.00
2018-06-17T10:36:06.890Z,54.10
2018-06-17T10:38:37.163Z,54.10
2018-06-17T10:41:07.294Z,54.40
2018-06-17T10:43:37.420Z,54.60
2018-06-17T10:46:07.559Z,54.70
2018-06-17T10:51:07.468Z,55.10
2018-06-17T10:56:07.851Z,55.60
2018-06-17T10:58:37.775Z,56.40
2018-06-17T11:01:07.993Z,56.20
2018-06-17T11:03:38.695Z,56.50
2018-06-17T11:06:08.880Z,56.60
2018-06-17T11:08:38.932Z,56.70
2018-06-17T11:11:09.260Z,57.30
2018-06-17T11:13:39.394Z,56.70
2018-06-17T11:16:09.437Z,56.00
2018-06-17T11:18:39.818Z,56.20
2018-06-17T11:21:09.981Z,56.10
2018-06-17T11:23:40.122Z,56.00
2018-06-17T11:26:10.220Z,55.70
2018-06-17T11:28:40.309Z,55.70
2018-06-17T11:31:10.947Z,55.40
2018-06-17T11:33:41.001Z,55.20
2018-06-17T11:36:11.296Z,55.10
2018-06-17T11:38:41.526Z,54.20
2018-06-17T11:41:11.625Z,54.20
2018-06-17T11:43:41.785Z,53.50
2018-06-17T11:46:11.903Z,53.40
2018-06-17T11:48:42.007Z,52.70
2018-06-17T11:51:12.453Z,52.40
2018-06-17T11:53:42.657Z,52.20
2018-06-17T11:56:12.811Z,52.00
2018-06-17T11:58:43.077Z,51.50
2018-06-17T12:01:13.172Z,51.50
2018-06-17T12:03:43.584Z,51.20
2018-06-17T12:06:13.923Z,51.90
2018-06-17T12:11:14.133Z,50.70
2018-06-17T12:16:13.995Z,50.60
2018-06-17T12:18:44.453Z,50.60
2018-06-17T12:21:14.663Z,50.50
2018-06-17T12:23:44.819Z,50.30
2018-06-17T12:26:15.377Z,50.20
2018-06-17T12:28:45.456Z,50.20
2018-06-17T12:31:15.777Z,49.40
2018-06-17T12:33:46.283Z,48.70
2018-06-17T12:36:16.509Z,48.80
2018-06-17T12:38:46.992Z,49.10
2018-06-17T12:41:17.053Z,49.10
2018-06-17T12:43:47.648Z,49.20
2018-06-17T12:46:17.774Z,49.90
2018-06-17T12:48:47.897Z,50.50
2018-06-17T12:51:18.129Z,50.90
2018-06-17T12:53:48.695Z,51.00
2018-06-17T12:56:18.805Z,51.40
2018-06-17T12:58:48.915Z,51.30
2018-06-17T13:01:19.141Z,51.70
2018-06-17T13:03:49.767Z,51.30
2018-06-17T13:06:19.825Z,51.40
2018-06-17T13:08:49.861Z,51.10
2018-06-17T13:11:20.031Z,51.20
2018-06-17T13:13:50.088Z,50.80
2018-06-17T13:16:20.302Z,50.60
2018-06-17T13:18:50.485Z,49.80
2018-06-17T13:21:20.618Z,49.30
2018-06-17T13:23:51.701Z,49.00
2018-06-17T13:26:21.892Z,49.10
2018-06-17T13:28:51.958Z,49.00
2018-06-17T13:31:22.082Z,49.30
2018-06-17T13:33:52.225Z,49.50
2018-06-17T13:36:22.436Z,49.70
2018-06-17T13:38:52.632Z,49.30
2018-06-17T13:41:22.852Z,48.60
2018-06-17T13:43:53.310Z,47.90
2018-06-17T13:46:23.867Z,47.60
2018-06-17T13:48:54.090Z,45.00
2018-06-17T13:51:24.232Z,44.30
2018-06-17T13:53:54.456Z,43.80
2018-06-17T13:56:25.168Z,43.40
2018-06-17T13:58:55.228Z,44.10
2018-06-17T14:01:26.527Z,43.10
2018-06-17T14:03:57.047Z,42.20
2018-06-17T14:06:27.158Z,43.10
2018-06-17T14:08:57.135Z,42.20
2018-06-17T14:11:31.451Z,39.90
2018-06-17T14:14:02.715Z,37.50
2018-06-17T14:16:32.858Z,33.40
2018-06-17T14:19:02.928Z,33.10
2018-06-17T14:21:33.081Z,34.60
2018-06-17T14:24:03.086Z,36.60
2018-06-17T14:26:33.128Z,38.50
2018-06-17T14:29:03.188Z,39.70
2018-06-17T14:31:33.236Z,37.50
2018-06-17T14:34:03.304Z,32.80
2018-06-17T14:36:33.348Z,29.40
2018-06-17T14:39:04.376Z,30.30
2018-06-17T14:41:34.509Z,30.40
2018-06-17T14:44:09.908Z,31.40
2018-06-17T14:46:45.868Z,33.60
2018-06-17T14:49:21.148Z,34.10
2018-06-17T14:51:51.845Z,35.00
2018-06-17T14:54:21.936Z,36.10
2018-06-17T14:56:52.013Z,35.90
2018-06-17T14:59:22.235Z,34.80
2018-06-17T15:01:52.292Z,34.80
2018-06-17T15:04:22.413Z,33.30
2018-06-17T15:06:52.439Z,31.70
2018-06-17T15:09:22.464Z,30.10
2018-06-17T15:11:52.564Z,30.00
2018-06-17T15:14:22.960Z,30.60
2018-06-17T15:16:53.121Z,32.60
2018-06-17T15:19:23.230Z,34.60
2018-06-17T15:21:53.257Z,36.10
2018-06-17T15:24:23.813Z,37.40
2018-06-17T15:26:53.954Z,38.40
2018-06-17T15:29:24.047Z,39.40
2018-06-17T15:33:01.814Z,39.90
2018-06-17T15:35:37.207Z,40.20
2018-06-17T15:38:12.388Z,40.90
2018-06-17T15:43:17.461Z,41.70
2018-06-17T15:45:47.599Z,42.40
2018-06-17T15:48:18.415Z,42.50
2018-06-17T15:50:49.507Z,42.50
2018-06-17T15:53:19.866Z,42.10
2018-06-17T15:55:49.974Z,41.30
2018-06-17T15:58:20.069Z,39.20
2018-06-17T16:00:50.263Z,37.40
2018-06-17T16:03:20.467Z,36.30
2018-06-17T16:05:51.113Z,36.50
2018-06-17T16:08:21.241Z,36.30
2018-06-17T16:10:51.523Z,35.90
2018-06-17T16:13:26.771Z,36.30
2018-06-17T16:16:02.120Z,37.50
2018-06-17T16:18:37.333Z,38.00
2018-06-17T16:21:08.589Z,38.10
2018-06-17T16:23:38.769Z,39.00
2018-06-17T16:26:08.852Z,39.90
2018-06-17T16:28:39.647Z,40.50
2018-06-17T16:31:09.975Z,40.70
2018-06-17T16:33:40.536Z,40.20
2018-06-17T16:36:10.609Z,40.10
2018-06-17T16:38:40.701Z,40.20
2018-06-17T16:41:10.851Z,40.10
2018-06-17T16:43:41.082Z,40.40
2018-06-17T16:46:11.287Z,40.50
2018-06-17T16:48:41.373Z,40.30
2018-06-17T16:52:16.415Z,40.50
2018-06-17T16:54:51.817Z,40.60
2018-06-17T16:57:27.255Z,40.70
2018-06-17T17:00:00.552Z,41.50
2018-06-17T17:02:30.617Z,41.30
2018-06-17T17:05:00.779Z,41.80
2018-06-17T17:07:31.048Z,42.40
2018-06-17T17:10:01.284Z,43.00
2018-06-17T17:12:32.657Z,42.60
2018-06-17T17:15:02.829Z,40.80
2018-06-17T17:17:33.332Z,39.90
2018-06-17T17:20:03.582Z,39.10
2018-06-17T17:22:34.527Z,39.30
2018-06-17T17:25:04.895Z,39.50
2018-06-17T17:27:35.095Z,39.60
2018-06-17T17:30:05.564Z,40.00
2018-06-17T17:32:40.982Z,40.50
2018-06-17T17:35:16.272Z,41.20
2018-06-17T17:37:52.375Z,41.70
2018-06-17T17:40:27.644Z,42.10
2018-06-17T17:42:57.714Z,42.50
2018-06-17T17:45:32.002Z,42.80
2018-06-17T17:50:32.251Z,43.50
2018-06-17T17:53:02.358Z,43.60
2018-06-17T17:55:32.582Z,44.00
2018-06-17T17:58:03.078Z,44.10
2018-06-17T18:00:35.398Z,44.20
2018-06-17T18:03:05.520Z,45.10
2018-06-17T18:05:35.777Z,44.60
2018-06-17T18:08:05.893Z,44.80
2018-06-17T18:10:36.770Z,44.80
2018-06-17T18:13:06.941Z,44.80
2018-06-17T18:15:37.728Z,44.60
2018-06-17T18:18:07.892Z,44.30
2018-06-17T18:20:38.169Z,44.20
2018-06-17T18:23:08.846Z,44.20
2018-06-17T18:25:44.346Z,44.30
2018-06-17T18:30:56.659Z,44.60
2018-06-17T18:33:32.012Z,44.80
2018-06-17T18:36:07.577Z,45.10
2018-06-17T18:38:39.414Z,45.30
2018-06-17T18:41:10.262Z,45.50
2018-06-17T18:43:41.743Z,45.70
2018-06-17T18:46:12.906Z,45.80
2018-06-17T18:48:43.058Z,45.90
2018-06-17T18:51:13.145Z,46.10
2018-06-17T18:53:43.397Z,46.90
2018-06-17T18:56:13.577Z,46.50
2018-06-17T18:58:43.647Z,46.80
2018-06-17T19:01:13.881Z,46.80
2018-06-17T19:03:44.295Z,46.90
2018-06-17T19:06:14.565Z,47.00
2018-06-17T19:08:49.995Z,46.80
2018-06-17T19:11:25.450Z,47.00
2018-06-17T19:14:01.579Z,47.10
2018-06-17T19:16:37.080Z,47.20
2018-06-17T19:19:07.275Z,47.40
2018-06-17T19:21:37.402Z,47.60
2018-06-17T19:24:08.485Z,47.80
2018-06-17T19:26:38.761Z,47.90
2018-06-17T19:29:08.987Z,48.00
2018-06-17T19:31:39.870Z,48.00
2018-06-17T19:34:10.090Z,48.00
2018-06-17T19:39:11.939Z,48.20
2018-06-17T19:41:42.169Z,48.30
2018-06-17T19:44:13.888Z,48.20
2018-06-17T19:46:44.102Z,48.40
2018-06-17T19:49:14.319Z,48.50
2018-06-17T19:51:49.591Z,48.50
2018-06-17T19:54:24.989Z,48.70
2018-06-17T19:57:00.222Z,49.00
2018-06-17T19:59:36.405Z,49.10
2018-06-17T20:02:06.629Z,49.30
2018-06-17T20:04:36.792Z,49.40
2018-06-17T20:07:07.138Z,49.60
2018-06-17T20:09:37.204Z,49.70
2018-06-17T20:12:07.373Z,49.90
2018-06-17T20:14:37.383Z,50.10
2018-06-17T20:17:07.581Z,50.30
2018-06-17T20:19:37.844Z,50.50
2018-06-17T20:22:07.992Z,50.60
2018-06-17T20:24:37.989Z,50.80
2018-06-17T20:27:08.198Z,51.00
2018-06-17T20:29:38.460Z,51.10
2018-06-17T20:32:13.827Z,51.10
2018-06-17T20:34:49.240Z,51.70
2018-06-17T20:37:24.523Z,51.40
2018-06-17T20:39:59.965Z,51.60
2018-06-17T20:42:35.145Z,51.50
2018-06-17T20:47:35.611Z,52.00
2018-06-17T20:50:05.879Z,52.20
2018-06-17T20:52:36.042Z,52.30
2018-06-17T20:55:06.517Z,52.50
2018-06-17T20:57:36.623Z,52.60
2018-06-17T21:00:07.319Z,52.70
2018-06-17T21:02:37.488Z,52.90
2018-06-17T21:05:07.591Z,53.10
2018-06-17T21:07:37.636Z,53.30
2018-06-17T21:10:08.154Z,53.50
2018-06-17T21:12:38.297Z,53.60
2018-06-17T21:15:13.706Z,53.80
2018-06-17T21:17:43.870Z,53.80
2018-06-17T21:20:19.335Z,54.00
2018-06-17T21:22:54.844Z,54.10
2018-06-17T21:25:31.300Z,54.20
2018-06-17T21:28:02.638Z,54.30
2018-06-17T21:30:32.794Z,54.30
2018-06-17T21:33:02.912Z,54.20
2018-06-17T21:35:33.106Z,54.20
2018-06-17T21:38:03.202Z,54.20
2018-06-17T21:40:33.300Z,54.20
2018-06-17T21:43:03.696Z,54.20
2018-06-17T21:45:33.734Z,54.30
2018-06-17T21:48:03.962Z,54.30
2018-06-17T21:50:34.540Z,54.30
2018-06-17T21:53:04.798Z,54.20
2018-06-17T21:55:35.809Z,54.20
2018-06-17T21:58:05.946Z,54.10
2018-06-17T22:00:36.062Z,53.90
2018-06-17T22:03:06.314Z,53.80
2018-06-17T22:05:36.381Z,53.80
2018-06-17T22:08:11.826Z,53.70
2018-06-17T22:10:47.131Z,53.70
2018-06-17T22:13:17.212Z,53.80
2018-06-17T22:16:56.270Z,53.80
2018-06-17T22:19:26.411Z,54.60
2018-06-17T22:21:56.609Z,54.10
2018-06-17T22:24:26.720Z,54.30
2018-06-17T22:26:56.774Z,54.40
2018-06-17T22:29:26.940Z,54.50
2018-06-17T22:31:57.157Z,54.70
2018-06-17T22:34:27.325Z,54.80
2018-06-17T22:36:58.004Z,55.00
2018-06-17T22:39:28.178Z,55.20
2018-06-17T22:41:58.344Z,55.30
2018-06-17T22:44:28.425Z,55.40
2018-06-17T22:46:59.040Z,55.50
2018-06-17T22:49:29.186Z,55.50
2018-06-17T22:51:59.769Z,55.50
2018-06-17T22:54:51.925Z,55.60
2018-06-17T22:57:27.286Z,55.70
2018-06-17T23:00:02.733Z,55.80
2018-06-17T23:02:38.087Z,55.90
2018-06-17T23:06:16.983Z,56.00
2018-06-17T23:08:52.155Z,56.20
2018-06-17T23:11:22.247Z,56.70
2018-06-17T23:13:53.069Z,56.90
2018-06-17T23:16:23.681Z,56.70
2018-06-17T23:18:54.276Z,56.70
2018-06-17T23:21:24.345Z,56.80
2018-06-17T23:23:54.429Z,56.90
2018-06-17T23:26:24.595Z,56.80
2018-06-17T23:28:54.648Z,56.80
2018-06-17T23:31:25.639Z,56.80
2018-06-17T23:33:56.947Z,56.80
2018-06-17T23:36:27.049Z,56.80
2018-06-17T23:38:57.086Z,57.60
2018-06-17T23:41:27.213Z,56.50
2018-06-17T23:43:58.343Z,57.00
2018-06-17T23:46:34.327Z,57.00
2018-06-17T23:49:09.631Z,57.00
2018-06-17T23:51:45.035Z,57.20
2018-06-17T23:54:20.469Z,57.40
2018-06-17T23:56:50.539Z,57.50
2018-06-17T23:59:20.629Z,57.70
